sensor_id;sensor_type;location;lat;lon;timestamp;P1;durP1;ratioP1;P2;durP2;ratioP2
9072;SDS011;4572;41.642;25.370;2022-10-31T00:01:21;3.43;;;2.50;;
9072;SDS011;4572;41.642;25.370;2022-10-31T00:03:50;3.63;;;2.93;;
9072;SDS011;4572;41.642;25.370;2022-10-31T00:06:15;5.93;;;2.80;;
9072;SDS011;4572;41.642;25.370;2022-10-31T00:08:43;3.47;;;2.87;;
9072;SDS011;4572;41.642;25.370;2022-10-31T00:11:10;4.40;;;3.00;;
9072;SDS011;4572;41.642;25.370;2022-10-31T00:13:36;3.50;;;2.63;;
9072;SDS011;4572;41.642;25.370;2022-10-31T00:16:01;3.80;;;2.77;;
9072;SDS011;4572;41.642;25.370;2022-10-31T00:18:27;5.37;;;3.17;;
9072;SDS011;4572;41.642;25.370;2022-10-31T00:21:00;3.93;;;2.70;;
9072;SDS011;4572;41.642;25.370;2022-10-31T00:23:26;5.20;;;2.90;;
9072;SDS011;4572;41.642;25.370;2022-10-31T00:25:52;6.57;;;3.10;;
9072;SDS011;4572;41.642;25.370;2022-10-31T00:28:17;3.40;;;2.80;;
9072;SDS011;4572;41.642;25.370;2022-10-31T00:30:43;4.87;;;2.60;;
9072;SDS011;4572;41.642;25.370;2022-10-31T00:33:08;4.47;;;2.60;;
9072;SDS011;4572;41.642;25.370;2022-10-31T00:35:34;6.67;;;2.70;;
9072;SDS011;4572;41.642;25.370;2022-10-31T00:37:59;4.73;;;3.27;;
9072;SDS011;4572;41.642;25.370;2022-10-31T00:40:25;3.20;;;2.37;;
9072;SDS011;4572;41.642;25.370;2022-10-31T00:42:50;3.13;;;2.83;;
9072;SDS011;4572;41.642;25.370;2022-10-31T00:45:15;5.00;;;2.77;;
9072;SDS011;4572;41.642;25.370;2022-10-31T00:47:41;4.20;;;3.00;;
9072;SDS011;4572;41.642;25.370;2022-10-31T00:50:07;4.70;;;2.97;;
9072;SDS011;4572;41.642;25.370;2022-10-31T00:52:32;3.23;;;2.83;;
9072;SDS011;4572;41.642;25.370;2022-10-31T00:54:58;4.70;;;3.10;;
9072;SDS011;4572;41.642;25.370;2022-10-31T00:57:24;4.33;;;2.60;;
9072;SDS011;4572;41.642;25.370;2022-10-31T00:59:49;3.90;;;3.03;;
9072;SDS011;4572;41.642;25.370;2022-10-31T01:02:15;4.70;;;2.90;;
9072;SDS011;4572;41.642;25.370;2022-10-31T01:04:40;5.67;;;2.90;;
9072;SDS011;4572;41.642;25.370;2022-10-31T01:07:06;7.27;;;2.87;;
9072;SDS011;4572;41.642;25.370;2022-10-31T01:09:32;5.93;;;3.07;;
9072;SDS011;4572;41.642;25.370;2022-10-31T01:11:57;3.80;;;2.87;;
9072;SDS011;4572;41.642;25.370;2022-10-31T01:14:23;3.97;;;2.77;;
9072;SDS011;4572;41.642;25.370;2022-10-31T01:16:48;5.10;;;3.10;;
9072;SDS011;4572;41.642;25.370;2022-10-31T01:19:14;4.47;;;2.97;;
9072;SDS011;4572;41.642;25.370;2022-10-31T01:21:39;5.77;;;2.40;;
9072;SDS011;4572;41.642;25.370;2022-10-31T01:24:05;3.20;;;2.50;;
9072;SDS011;4572;41.642;25.370;2022-10-31T01:26:31;3.07;;;2.40;;
9072;SDS011;4572;41.642;25.370;2022-10-31T01:29:02;4.47;;;2.37;;
9072;SDS011;4572;41.642;25.370;2022-10-31T01:31:30;3.87;;;2.83;;
9072;SDS011;4572;41.642;25.370;2022-10-31T01:33:57;4.47;;;2.37;;
9072;SDS011;4572;41.642;25.370;2022-10-31T01:39:13;3.50;;;2.50;;
9072;SDS011;4572;41.642;25.370;2022-10-31T01:41:44;3.40;;;2.57;;
9072;SDS011;4572;41.642;25.370;2022-10-31T01:49:34;3.67;;;2.57;;
9072;SDS011;4572;41.642;25.370;2022-10-31T01:54:58;5.60;;;2.83;;
9072;SDS011;4572;41.642;25.370;2022-10-31T01:57:27;3.90;;;2.60;;
9072;SDS011;4572;41.642;25.370;2022-10-31T01:59:55;7.33;;;2.47;;
9072;SDS011;4572;41.642;25.370;2022-10-31T02:02:22;4.60;;;2.67;;
9072;SDS011;4572;41.642;25.370;2022-10-31T02:04:48;3.00;;;2.70;;
9072;SDS011;4572;41.642;25.370;2022-10-31T02:07:24;4.67;;;2.70;;
9072;SDS011;4572;41.642;25.370;2022-10-31T02:09:52;3.33;;;2.83;;
9072;SDS011;4572;41.642;25.370;2022-10-31T02:12:18;6.37;;;3.13;;
9072;SDS011;4572;41.642;25.370;2022-10-31T02:14:44;3.83;;;2.73;;
9072;SDS011;4572;41.642;25.370;2022-10-31T02:17:10;4.97;;;3.00;;
9072;SDS011;4572;41.642;25.370;2022-10-31T02:19:40;5.17;;;3.07;;
9072;SDS011;4572;41.642;25.370;2022-10-31T02:25:51;5.87;;;3.10;;
9072;SDS011;4572;41.642;25.370;2022-10-31T02:30:27;5.47;;;2.70;;
9072;SDS011;4572;41.642;25.370;2022-10-31T02:39:12;2.97;;;2.47;;
9072;SDS011;4572;41.642;25.370;2022-10-31T02:41:47;3.40;;;2.60;;
9072;SDS011;4572;41.642;25.370;2022-10-31T02:44:37;3.67;;;2.57;;
9072;SDS011;4572;41.642;25.370;2022-10-31T02:49:43;4.50;;;2.63;;
9072;SDS011;4572;41.642;25.370;2022-10-31T02:52:19;3.23;;;2.23;;
9072;SDS011;4572;41.642;25.370;2022-10-31T02:54:45;4.47;;;3.10;;
9072;SDS011;4572;41.642;25.370;2022-10-31T02:57:11;7.50;;;3.10;;
9072;SDS011;4572;41.642;25.370;2022-10-31T02:59:38;3.70;;;3.00;;
9072;SDS011;4572;41.642;25.370;2022-10-31T03:02:12;3.03;;;2.67;;
9072;SDS011;4572;41.642;25.370;2022-10-31T03:07:30;6.83;;;3.03;;
9072;SDS011;4572;41.642;25.370;2022-10-31T03:10:16;4.17;;;2.93;;
9072;SDS011;4572;41.642;25.370;2022-10-31T03:15:34;3.63;;;2.47;;
9072;SDS011;4572;41.642;25.370;2022-10-31T03:18:09;4.27;;;2.70;;
9072;SDS011;4572;41.642;25.370;2022-10-31T03:20:45;4.40;;;2.77;;
9072;SDS011;4572;41.642;25.370;2022-10-31T03:23:15;6.80;;;3.50;;
9072;SDS011;4572;41.642;25.370;2022-10-31T03:25:42;5.97;;;3.30;;
9072;SDS011;4572;41.642;25.370;2022-10-31T03:28:09;5.87;;;3.17;;
9072;SDS011;4572;41.642;25.370;2022-10-31T03:30:35;6.60;;;3.90;;
9072;SDS011;4572;41.642;25.370;2022-10-31T03:33:04;5.43;;;3.80;;
9072;SDS011;4572;41.642;25.370;2022-10-31T03:35:34;5.40;;;3.33;;
9072;SDS011;4572;41.642;25.370;2022-10-31T03:38:00;8.33;;;3.63;;
9072;SDS011;4572;41.642;25.370;2022-10-31T03:40:27;7.17;;;4.07;;
9072;SDS011;4572;41.642;25.370;2022-10-31T03:42:54;5.93;;;3.70;;
9072;SDS011;4572;41.642;25.370;2022-10-31T03:45:29;5.90;;;3.77;;
9072;SDS011;4572;41.642;25.370;2022-10-31T03:47:55;7.40;;;3.73;;
9072;SDS011;4572;41.642;25.370;2022-10-31T03:50:23;4.03;;;3.17;;
9072;SDS011;4572;41.642;25.370;2022-10-31T03:52:55;5.80;;;3.33;;
9072;SDS011;4572;41.642;25.370;2022-10-31T03:55:31;5.03;;;3.30;;
9072;SDS011;4572;41.642;25.370;2022-10-31T03:58:02;3.80;;;3.03;;
9072;SDS011;4572;41.642;25.370;2022-10-31T04:00:30;5.07;;;3.43;;
9072;SDS011;4572;41.642;25.370;2022-10-31T04:02:58;3.83;;;3.00;;
9072;SDS011;4572;41.642;25.370;2022-10-31T04:05:26;6.07;;;3.40;;
9072;SDS011;4572;41.642;25.370;2022-10-31T04:07:53;4.20;;;3.17;;
9072;SDS011;4572;41.642;25.370;2022-10-31T04:10:19;7.07;;;3.67;;
9072;SDS011;4572;41.642;25.370;2022-10-31T04:12:48;4.27;;;3.40;;
9072;SDS011;4572;41.642;25.370;2022-10-31T04:15:16;7.53;;;3.10;;
9072;SDS011;4572;41.642;25.370;2022-10-31T04:17:42;4.00;;;3.20;;
9072;SDS011;4572;41.642;25.370;2022-10-31T04:20:11;4.33;;;3.37;;
9072;SDS011;4572;41.642;25.370;2022-10-31T04:22:40;6.43;;;3.77;;
9072;SDS011;4572;41.642;25.370;2022-10-31T04:25:06;4.87;;;3.20;;
9072;SDS011;4572;41.642;25.370;2022-10-31T04:27:32;9.43;;;3.53;;
9072;SDS011;4572;41.642;25.370;2022-10-31T04:29:57;6.87;;;3.37;;
9072;SDS011;4572;41.642;25.370;2022-10-31T04:32:24;6.50;;;3.10;;
9072;SDS011;4572;41.642;25.370;2022-10-31T04:34:50;5.00;;;3.57;;
9072;SDS011;4572;41.642;25.370;2022-10-31T04:37:15;5.87;;;3.70;;
9072;SDS011;4572;41.642;25.370;2022-10-31T04:39:41;8.80;;;3.67;;
9072;SDS011;4572;41.642;25.370;2022-10-31T04:42:06;5.13;;;4.07;;
9072;SDS011;4572;41.642;25.370;2022-10-31T04:44:31;7.90;;;4.17;;
9072;SDS011;4572;41.642;25.370;2022-10-31T04:46:57;4.97;;;3.60;;
9072;SDS011;4572;41.642;25.370;2022-10-31T04:49:22;6.13;;;4.00;;
9072;SDS011;4572;41.642;25.370;2022-10-31T04:51:48;6.10;;;3.90;;
9072;SDS011;4572;41.642;25.370;2022-10-31T04:54:13;7.60;;;4.80;;
9072;SDS011;4572;41.642;25.370;2022-10-31T04:56:39;7.03;;;4.30;;
9072;SDS011;4572;41.642;25.370;2022-10-31T04:59:04;6.03;;;4.10;;
9072;SDS011;4572;41.642;25.370;2022-10-31T05:01:30;5.33;;;4.20;;
9072;SDS011;4572;41.642;25.370;2022-10-31T05:03:55;6.13;;;3.97;;
9072;SDS011;4572;41.642;25.370;2022-10-31T05:06:21;6.10;;;3.80;;
9072;SDS011;4572;41.642;25.370;2022-10-31T05:08:47;4.97;;;3.83;;
9072;SDS011;4572;41.642;25.370;2022-10-31T05:11:12;5.53;;;4.00;;
9072;SDS011;4572;41.642;25.370;2022-10-31T05:13:38;8.23;;;4.03;;
9072;SDS011;4572;41.642;25.370;2022-10-31T05:16:04;11.23;;;4.30;;
9072;SDS011;4572;41.642;25.370;2022-10-31T05:18:30;10.10;;;4.00;;
9072;SDS011;4572;41.642;25.370;2022-10-31T05:20:55;6.73;;;4.10;;
9072;SDS011;4572;41.642;25.370;2022-10-31T05:23:20;9.33;;;4.17;;
9072;SDS011;4572;41.642;25.370;2022-10-31T05:25:46;7.63;;;4.53;;
9072;SDS011;4572;41.642;25.370;2022-10-31T05:28:11;6.20;;;4.50;;
9072;SDS011;4572;41.642;25.370;2022-10-31T05:30:37;11.83;;;4.50;;
9072;SDS011;4572;41.642;25.370;2022-10-31T05:33:02;6.70;;;4.30;;
9072;SDS011;4572;41.642;25.370;2022-10-31T05:35:29;6.80;;;4.83;;
9072;SDS011;4572;41.642;25.370;2022-10-31T05:37:56;9.73;;;4.47;;
9072;SDS011;4572;41.642;25.370;2022-10-31T05:40:25;6.57;;;4.43;;
9072;SDS011;4572;41.642;25.370;2022-10-31T05:42:52;10.03;;;4.60;;
9072;SDS011;4572;41.642;25.370;2022-10-31T05:45:19;11.83;;;4.40;;
9072;SDS011;4572;41.642;25.370;2022-10-31T05:48:04;9.53;;;5.03;;
9072;SDS011;4572;41.642;25.370;2022-10-31T05:50:30;14.13;;;6.30;;
9072;SDS011;4572;41.642;25.370;2022-10-31T05:53:02;10.47;;;5.40;;
9072;SDS011;4572;41.642;25.370;2022-10-31T05:55:28;11.00;;;5.40;;
9072;SDS011;4572;41.642;25.370;2022-10-31T05:57:54;10.73;;;5.47;;
9072;SDS011;4572;41.642;25.370;2022-10-31T06:00:21;9.57;;;5.77;;
9072;SDS011;4572;41.642;25.370;2022-10-31T06:02:47;10.67;;;6.63;;
9072;SDS011;4572;41.642;25.370;2022-10-31T06:05:14;14.10;;;5.87;;
9072;SDS011;4572;41.642;25.370;2022-10-31T06:07:41;10.27;;;6.33;;
9072;SDS011;4572;41.642;25.370;2022-10-31T06:10:07;20.57;;;6.50;;
9072;SDS011;4572;41.642;25.370;2022-10-31T06:12:34;12.60;;;6.00;;
9072;SDS011;4572;41.642;25.370;2022-10-31T06:15:06;14.17;;;9.33;;
9072;SDS011;4572;41.642;25.370;2022-10-31T06:17:35;27.00;;;14.67;;
9072;SDS011;4572;41.642;25.370;2022-10-31T06:20:01;15.80;;;5.77;;
9072;SDS011;4572;41.642;25.370;2022-10-31T06:22:28;8.63;;;4.93;;
9072;SDS011;4572;41.642;25.370;2022-10-31T06:24:55;13.90;;;5.93;;
9072;SDS011;4572;41.642;25.370;2022-10-31T06:27:21;7.73;;;5.07;;
9072;SDS011;4572;41.642;25.370;2022-10-31T06:29:49;11.93;;;5.40;;
9072;SDS011;4572;41.642;25.370;2022-10-31T06:32:15;13.63;;;5.70;;
9072;SDS011;4572;41.642;25.370;2022-10-31T06:34:40;10.13;;;5.80;;
9072;SDS011;4572;41.642;25.370;2022-10-31T06:37:10;23.10;;;9.57;;
9072;SDS011;4572;41.642;25.370;2022-10-31T06:39:47;7.27;;;4.97;;
9072;SDS011;4572;41.642;25.370;2022-10-31T06:42:33;11.03;;;6.20;;
9072;SDS011;4572;41.642;25.370;2022-10-31T06:45:18;11.77;;;6.73;;
9072;SDS011;4572;41.642;25.370;2022-10-31T06:48:04;12.20;;;6.30;;
9072;SDS011;4572;41.642;25.370;2022-10-31T06:50:29;15.17;;;6.20;;
9072;SDS011;4572;41.642;25.370;2022-10-31T06:52:59;11.33;;;4.97;;
9072;SDS011;4572;41.642;25.370;2022-10-31T06:55:26;13.03;;;5.53;;
9072;SDS011;4572;41.642;25.370;2022-10-31T06:58:03;10.90;;;5.53;;
9072;SDS011;4572;41.642;25.370;2022-10-31T07:00:30;8.43;;;5.40;;
9072;SDS011;4572;41.642;25.370;2022-10-31T07:03:04;30.03;;;5.93;;
9072;SDS011;4572;41.642;25.370;2022-10-31T07:05:35;14.23;;;7.07;;
9072;SDS011;4572;41.642;25.370;2022-10-31T07:08:21;12.67;;;6.10;;
9072;SDS011;4572;41.642;25.370;2022-10-31T07:10:50;9.07;;;5.70;;
9072;SDS011;4572;41.642;25.370;2022-10-31T07:13:20;7.63;;;5.57;;
9072;SDS011;4572;41.642;25.370;2022-10-31T07:15:58;8.40;;;5.13;;
9072;SDS011;4572;41.642;25.370;2022-10-31T07:18:26;12.83;;;7.23;;
9072;SDS011;4572;41.642;25.370;2022-10-31T07:20:52;11.60;;;6.50;;
9072;SDS011;4572;41.642;25.370;2022-10-31T07:23:17;15.70;;;5.80;;
9072;SDS011;4572;41.642;25.370;2022-10-31T07:25:43;9.00;;;5.43;;
9072;SDS011;4572;41.642;25.370;2022-10-31T07:28:09;10.53;;;5.40;;
9072;SDS011;4572;41.642;25.370;2022-10-31T07:30:35;10.73;;;4.67;;
9072;SDS011;4572;41.642;25.370;2022-10-31T07:33:01;9.00;;;6.10;;
9072;SDS011;4572;41.642;25.370;2022-10-31T07:35:27;8.00;;;5.60;;
9072;SDS011;4572;41.642;25.370;2022-10-31T07:37:53;14.43;;;5.90;;
9072;SDS011;4572;41.642;25.370;2022-10-31T07:40:19;11.23;;;5.90;;
9072;SDS011;4572;41.642;25.370;2022-10-31T07:42:46;10.03;;;7.20;;
9072;SDS011;4572;41.642;25.370;2022-10-31T07:45:14;24.67;;;8.10;;
9072;SDS011;4572;41.642;25.370;2022-10-31T07:50:13;9.23;;;6.33;;
9072;SDS011;4572;41.642;25.370;2022-10-31T07:52:41;14.60;;;6.20;;
9072;SDS011;4572;41.642;25.370;2022-10-31T07:55:07;9.90;;;6.23;;
9072;SDS011;4572;41.642;25.370;2022-10-31T07:57:32;13.67;;;6.70;;
9072;SDS011;4572;41.642;25.370;2022-10-31T07:59:58;10.17;;;5.80;;
9072;SDS011;4572;41.642;25.370;2022-10-31T08:02:24;16.50;;;7.00;;
9072;SDS011;4572;41.642;25.370;2022-10-31T08:04:49;15.60;;;6.27;;
9072;SDS011;4572;41.642;25.370;2022-10-31T08:07:15;14.80;;;6.63;;
9072;SDS011;4572;41.642;25.370;2022-10-31T08:09:41;16.87;;;8.97;;
9072;SDS011;4572;41.642;25.370;2022-10-31T08:12:06;11.77;;;6.57;;
9072;SDS011;4572;41.642;25.370;2022-10-31T08:14:32;13.47;;;6.50;;
9072;SDS011;4572;41.642;25.370;2022-10-31T08:16:57;17.13;;;6.47;;
9072;SDS011;4572;41.642;25.370;2022-10-31T08:19:23;15.40;;;6.73;;
9072;SDS011;4572;41.642;25.370;2022-10-31T08:21:52;21.67;;;7.00;;
9072;SDS011;4572;41.642;25.370;2022-10-31T08:24:20;11.00;;;5.93;;
9072;SDS011;4572;41.642;25.370;2022-10-31T08:26:48;12.73;;;5.73;;
9072;SDS011;4572;41.642;25.370;2022-10-31T08:29:14;18.40;;;5.70;;
9072;SDS011;4572;41.642;25.370;2022-10-31T08:31:40;13.10;;;6.40;;
9072;SDS011;4572;41.642;25.370;2022-10-31T08:34:06;37.03;;;7.23;;
9072;SDS011;4572;41.642;25.370;2022-10-31T08:36:31;27.67;;;9.47;;
9072;SDS011;4572;41.642;25.370;2022-10-31T08:38:57;37.30;;;16.07;;
9072;SDS011;4572;41.642;25.370;2022-10-31T08:41:22;17.73;;;9.17;;
9072;SDS011;4572;41.642;25.370;2022-10-31T08:43:48;15.07;;;6.70;;
9072;SDS011;4572;41.642;25.370;2022-10-31T08:46:13;21.00;;;9.50;;
9072;SDS011;4572;41.642;25.370;2022-10-31T08:48:39;12.33;;;7.47;;
9072;SDS011;4572;41.642;25.370;2022-10-31T08:51:04;12.20;;;6.20;;
9072;SDS011;4572;41.642;25.370;2022-10-31T08:53:30;12.47;;;6.33;;
9072;SDS011;4572;41.642;25.370;2022-10-31T08:55:55;12.10;;;6.37;;
9072;SDS011;4572;41.642;25.370;2022-10-31T08:58:21;13.90;;;5.47;;
9072;SDS011;4572;41.642;25.370;2022-10-31T09:00:48;10.80;;;5.20;;
9072;SDS011;4572;41.642;25.370;2022-10-31T09:03:16;13.50;;;5.40;;
9072;SDS011;4572;41.642;25.370;2022-10-31T09:05:45;12.90;;;6.00;;
9072;SDS011;4572;41.642;25.370;2022-10-31T09:08:11;10.63;;;5.37;;
9072;SDS011;4572;41.642;25.370;2022-10-31T09:10:37;15.63;;;5.83;;
9072;SDS011;4572;41.642;25.370;2022-10-31T09:15:35;15.63;;;9.40;;
9072;SDS011;4572;41.642;25.370;2022-10-31T09:18:02;8.90;;;5.73;;
9072;SDS011;4572;41.642;25.370;2022-10-31T09:20:28;16.63;;;8.37;;
9072;SDS011;4572;41.642;25.370;2022-10-31T09:22:57;16.47;;;5.60;;
9072;SDS011;4572;41.642;25.370;2022-10-31T09:25:24;13.83;;;6.27;;
9072;SDS011;4572;41.642;25.370;2022-10-31T09:27:50;10.50;;;5.57;;
9072;SDS011;4572;41.642;25.370;2022-10-31T09:30:15;16.30;;;7.63;;
9072;SDS011;4572;41.642;25.370;2022-10-31T09:32:41;10.80;;;5.30;;
9072;SDS011;4572;41.642;25.370;2022-10-31T09:35:06;16.15;;;5.93;;
9072;SDS011;4572;41.642;25.370;2022-10-31T09:37:33;17.63;;;4.88;;
9072;SDS011;4572;41.642;25.370;2022-10-31T09:39:58;7.88;;;4.50;;
9072;SDS011;4572;41.642;25.370;2022-10-31T09:45:07;11.25;;;5.88;;
9072;SDS011;4572;41.642;25.370;2022-10-31T09:52:39;7.03;;;3.55;;
9072;SDS011;4572;41.642;25.370;2022-10-31T09:55:18;8.02;;;5.20;;
9072;SDS011;4572;41.642;25.370;2022-10-31T09:57:48;10.25;;;3.40;;
9072;SDS011;4572;41.642;25.370;2022-10-31T10:00:15;7.25;;;3.17;;
9072;SDS011;4572;41.642;25.370;2022-10-31T10:05:29;7.03;;;4.55;;
9072;SDS011;4572;41.642;25.370;2022-10-31T10:08:16;5.63;;;3.25;;
9072;SDS011;4572;41.642;25.370;2022-10-31T10:10:51;8.30;;;6.20;;
9072;SDS011;4572;41.642;25.370;2022-10-31T10:22:03;6.78;;;3.45;;
9072;SDS011;4572;41.642;25.370;2022-10-31T10:30:17;7.13;;;3.63;;
9072;SDS011;4572;41.642;25.370;2022-10-31T10:33:08;5.65;;;3.00;;
9072;SDS011;4572;41.642;25.370;2022-10-31T10:40:59;5.50;;;3.47;;
9072;SDS011;4572;41.642;25.370;2022-10-31T10:43:33;5.63;;;3.10;;
9072;SDS011;4572;41.642;25.370;2022-10-31T10:51:31;11.80;;;5.40;;
9072;SDS011;4572;41.642;25.370;2022-10-31T10:54:12;5.22;;;2.55;;
9072;SDS011;4572;41.642;25.370;2022-10-31T10:56:46;3.00;;;2.58;;
9072;SDS011;4572;41.642;25.370;2022-10-31T10:59:19;5.40;;;3.80;;
9072;SDS011;4572;41.642;25.370;2022-10-31T11:01:48;3.85;;;2.60;;
9072;SDS011;4572;41.642;25.370;2022-10-31T11:07:54;4.63;;;2.55;;
9072;SDS011;4572;41.642;25.370;2022-10-31T11:10:20;7.65;;;2.50;;
9072;SDS011;4572;41.642;25.370;2022-10-31T11:15:34;4.38;;;2.17;;
9072;SDS011;4572;41.642;25.370;2022-10-31T11:18:02;7.57;;;2.40;;
9072;SDS011;4572;41.642;25.370;2022-10-31T11:20:29;5.55;;;2.22;;
9072;SDS011;4572;41.642;25.370;2022-10-31T11:25:48;4.53;;;2.72;;
9072;SDS011;4572;41.642;25.370;2022-10-31T11:28:15;2.80;;;1.88;;
9072;SDS011;4572;41.642;25.370;2022-10-31T11:30:48;4.43;;;2.33;;
9072;SDS011;4572;41.642;25.370;2022-10-31T11:33:16;6.50;;;2.05;;
9072;SDS011;4572;41.642;25.370;2022-10-31T11:35:44;4.68;;;2.30;;
9072;SDS011;4572;41.642;25.370;2022-10-31T11:38:12;4.50;;;1.90;;
9072;SDS011;4572;41.642;25.370;2022-10-31T11:40:49;2.00;;;1.90;;
9072;SDS011;4572;41.642;25.370;2022-10-31T11:43:17;32.22;;;23.20;;
9072;SDS011;4572;41.642;25.370;2022-10-31T11:45:43;7.90;;;2.28;;
9072;SDS011;4572;41.642;25.370;2022-10-31T11:48:16;13.50;;;6.70;;
9072;SDS011;4572;41.642;25.370;2022-10-31T11:50:48;3.53;;;2.28;;
9072;SDS011;4572;41.642;25.370;2022-10-31T11:53:16;8.68;;;4.38;;
9072;SDS011;4572;41.642;25.370;2022-10-31T11:55:44;4.78;;;2.58;;
9072;SDS011;4572;41.642;25.370;2022-10-31T11:58:20;7.43;;;2.95;;
9072;SDS011;4572;41.642;25.370;2022-10-31T12:00:48;4.25;;;2.65;;
9072;SDS011;4572;41.642;25.370;2022-10-31T12:05:49;3.42;;;2.58;;
9072;SDS011;4572;41.642;25.370;2022-10-31T12:08:19;3.25;;;2.95;;
9072;SDS011;4572;41.642;25.370;2022-10-31T12:22:38;10.10;;;6.38;;
9072;SDS011;4572;41.642;25.370;2022-10-31T12:30:26;2.75;;;2.30;;
9072;SDS011;4572;41.642;25.370;2022-10-31T12:43:57;6.13;;;3.30;;
9072;SDS011;4572;41.642;25.370;2022-10-31T12:46:32;5.95;;;3.70;;
9072;SDS011;4572;41.642;25.370;2022-10-31T12:49:17;6.68;;;2.83;;
9072;SDS011;4572;41.642;25.370;2022-10-31T12:51:48;8.32;;;3.22;;
9072;SDS011;4572;41.642;25.370;2022-10-31T12:59:49;5.97;;;3.20;;
9072;SDS011;4572;41.642;25.370;2022-10-31T13:08:05;6.65;;;3.60;;
9072;SDS011;4572;41.642;25.370;2022-10-31T13:13:21;9.85;;;6.53;;
9072;SDS011;4572;41.642;25.370;2022-10-31T13:16:04;8.63;;;3.40;;
9072;SDS011;4572;41.642;25.370;2022-10-31T13:18:38;4.93;;;2.55;;
9072;SDS011;4572;41.642;25.370;2022-10-31T13:21:08;3.47;;;2.85;;
9072;SDS011;4572;41.642;25.370;2022-10-31T13:23:37;4.32;;;3.33;;
9072;SDS011;4572;41.642;25.370;2022-10-31T13:26:15;7.93;;;3.17;;
9072;SDS011;4572;41.642;25.370;2022-10-31T13:31:20;3.15;;;2.55;;
9072;SDS011;4572;41.642;25.370;2022-10-31T13:33:58;5.32;;;3.47;;
9072;SDS011;4572;41.642;25.370;2022-10-31T13:36:39;7.97;;;3.67;;
9072;SDS011;4572;41.642;25.370;2022-10-31T13:44:20;6.07;;;3.28;;
9072;SDS011;4572;41.642;25.370;2022-10-31T13:46:51;5.32;;;2.97;;
9072;SDS011;4572;41.642;25.370;2022-10-31T13:54:51;6.47;;;3.30;;
9072;SDS011;4572;41.642;25.370;2022-10-31T14:00:28;7.95;;;3.58;;
9072;SDS011;4572;41.642;25.370;2022-10-31T14:02:53;6.55;;;3.83;;
9072;SDS011;4572;41.642;25.370;2022-10-31T14:05:26;8.60;;;5.40;;
9072;SDS011;4572;41.642;25.370;2022-10-31T14:07:53;6.85;;;5.78;;
9072;SDS011;4572;41.642;25.370;2022-10-31T14:10:29;6.07;;;3.50;;
9072;SDS011;4572;41.642;25.370;2022-10-31T14:15:33;4.03;;;3.22;;
9072;SDS011;4572;41.642;25.370;2022-10-31T14:18:03;8.00;;;4.35;;
9072;SDS011;4572;41.642;25.370;2022-10-31T14:20:40;6.22;;;3.58;;
9072;SDS011;4572;41.642;25.370;2022-10-31T14:25:50;6.55;;;3.70;;
9072;SDS011;4572;41.642;25.370;2022-10-31T14:28:22;8.73;;;5.00;;
9072;SDS011;4572;41.642;25.370;2022-10-31T14:30:58;7.25;;;3.28;;
9072;SDS011;4572;41.642;25.370;2022-10-31T14:33:25;9.00;;;3.90;;
9072;SDS011;4572;41.642;25.370;2022-10-31T14:35:57;5.55;;;3.08;;
9072;SDS011;4572;41.642;25.370;2022-10-31T14:41:17;12.57;;;6.90;;
9072;SDS011;4572;41.642;25.370;2022-10-31T14:43:51;6.35;;;4.53;;
9072;SDS011;4572;41.642;25.370;2022-10-31T14:49:13;9.05;;;4.13;;
9072;SDS011;4572;41.642;25.370;2022-10-31T14:51:46;5.30;;;4.40;;
9072;SDS011;4572;41.642;25.370;2022-10-31T14:54:50;10.65;;;5.35;;
9072;SDS011;4572;41.642;25.370;2022-10-31T14:57:06;8.32;;;4.07;;
9072;SDS011;4572;41.642;25.370;2022-10-31T14:59:37;8.85;;;4.60;;
9072;SDS011;4572;41.642;25.370;2022-10-31T15:02:17;9.68;;;4.53;;
9072;SDS011;4572;41.642;25.370;2022-10-31T15:05:03;16.52;;;5.50;;
9072;SDS011;4572;41.642;25.370;2022-10-31T15:07:33;12.73;;;7.82;;
9072;SDS011;4572;41.642;25.370;2022-10-31T15:10:03;15.27;;;5.40;;
9072;SDS011;4572;41.642;25.370;2022-10-31T15:12:34;19.75;;;7.30;;
9072;SDS011;4572;41.642;25.370;2022-10-31T15:15:13;13.63;;;6.68;;
9072;SDS011;4572;41.642;25.370;2022-10-31T15:17:47;22.90;;;11.23;;
9072;SDS011;4572;41.642;25.370;2022-10-31T15:20:21;21.60;;;10.27;;
9072;SDS011;4572;41.642;25.370;2022-10-31T15:22:49;19.27;;;7.22;;
9072;SDS011;4572;41.642;25.370;2022-10-31T15:25:22;10.85;;;5.55;;
9072;SDS011;4572;41.642;25.370;2022-10-31T15:27:49;11.13;;;3.95;;
9072;SDS011;4572;41.642;25.370;2022-10-31T15:30:16;7.80;;;4.47;;
9072;SDS011;4572;41.642;25.370;2022-10-31T15:32:46;7.00;;;4.07;;
9072;SDS011;4572;41.642;25.370;2022-10-31T15:35:20;8.88;;;3.58;;
9072;SDS011;4572;41.642;25.370;2022-10-31T15:37:47;7.35;;;3.60;;
9072;SDS011;4572;41.642;25.370;2022-10-31T15:40:17;8.02;;;3.80;;
9072;SDS011;4572;41.642;25.370;2022-10-31T15:42:47;6.03;;;3.58;;
9072;SDS011;4572;41.642;25.370;2022-10-31T15:45:21;9.18;;;4.05;;
9072;SDS011;4572;41.642;25.370;2022-10-31T15:47:59;12.65;;;4.85;;
9072;SDS011;4572;41.642;25.370;2022-10-31T15:50:28;12.25;;;5.50;;
9072;SDS011;4572;41.642;25.370;2022-10-31T15:52:56;12.35;;;6.40;;
9072;SDS011;4572;41.642;25.370;2022-10-31T15:55:25;11.48;;;5.30;;
9072;SDS011;4572;41.642;25.370;2022-10-31T15:57:57;9.55;;;4.72;;
9072;SDS011;4572;41.642;25.370;2022-10-31T16:00:25;7.28;;;5.20;;
9072;SDS011;4572;41.642;25.370;2022-10-31T16:05:38;43.33;;;26.35;;
9072;SDS011;4572;41.642;25.370;2022-10-31T16:10:54;11.63;;;5.43;;
9072;SDS011;4572;41.642;25.370;2022-10-31T16:13:26;7.50;;;5.25;;
9072;SDS011;4572;41.642;25.370;2022-10-31T16:15:56;8.27;;;5.30;;
9072;SDS011;4572;41.642;25.370;2022-10-31T16:18:24;9.45;;;5.28;;
9072;SDS011;4572;41.642;25.370;2022-10-31T16:20:51;6.30;;;4.70;;
9072;SDS011;4572;41.642;25.370;2022-10-31T16:23:19;6.55;;;5.00;;
9072;SDS011;4572;41.642;25.370;2022-10-31T16:25:45;8.98;;;4.93;;
9072;SDS011;4572;41.642;25.370;2022-10-31T16:28:49;8.80;;;5.55;;
9072;SDS011;4572;41.642;25.370;2022-10-31T16:31:12;7.97;;;5.25;;
9072;SDS011;4572;41.642;25.370;2022-10-31T16:33:38;12.52;;;4.85;;
9072;SDS011;4572;41.642;25.370;2022-10-31T16:36:28;10.05;;;5.93;;
9072;SDS011;4572;41.642;25.370;2022-10-31T16:38:57;16.52;;;9.70;;
9072;SDS011;4572;41.642;25.370;2022-10-31T16:41:23;16.70;;;6.68;;
9072;SDS011;4572;41.642;25.370;2022-10-31T16:43:49;11.90;;;5.70;;
9072;SDS011;4572;41.642;25.370;2022-10-31T16:46:18;8.45;;;4.75;;
9072;SDS011;4572;41.642;25.370;2022-10-31T16:48:54;11.65;;;6.25;;
9072;SDS011;4572;41.642;25.370;2022-10-31T16:51:20;25.15;;;14.80;;
9072;SDS011;4572;41.642;25.370;2022-10-31T16:53:45;21.30;;;10.70;;
9072;SDS011;4572;41.642;25.370;2022-10-31T16:56:15;27.40;;;15.02;;
9072;SDS011;4572;41.642;25.370;2022-10-31T16:58:42;32.78;;;16.05;;
9072;SDS011;4572;41.642;25.370;2022-10-31T17:01:08;31.95;;;21.58;;
9072;SDS011;4572;41.642;25.370;2022-10-31T17:03:34;35.05;;;23.33;;
9072;SDS011;4572;41.642;25.370;2022-10-31T17:06:00;30.75;;;18.10;;
9072;SDS011;4572;41.642;25.370;2022-10-31T17:08:26;24.42;;;13.07;;
9072;SDS011;4572;41.642;25.370;2022-10-31T17:10:52;20.80;;;11.50;;
9072;SDS011;4572;41.642;25.370;2022-10-31T17:13:23;17.48;;;8.98;;
9072;SDS011;4572;41.642;25.370;2022-10-31T17:15:51;15.52;;;10.90;;
9072;SDS011;4572;41.642;25.370;2022-10-31T17:18:19;15.90;;;9.70;;
9072;SDS011;4572;41.642;25.370;2022-10-31T17:20:44;16.05;;;9.70;;
9072;SDS011;4572;41.642;25.370;2022-10-31T17:23:11;14.02;;;8.18;;
9072;SDS011;4572;41.642;25.370;2022-10-31T17:25:38;13.68;;;7.80;;
9072;SDS011;4572;41.642;25.370;2022-10-31T17:28:04;16.35;;;8.27;;
9072;SDS011;4572;41.642;25.370;2022-10-31T17:30:30;14.02;;;8.20;;
9072;SDS011;4572;41.642;25.370;2022-10-31T17:32:56;13.88;;;6.35;;
9072;SDS011;4572;41.642;25.370;2022-10-31T17:35:22;12.60;;;6.97;;
9072;SDS011;4572;41.642;25.370;2022-10-31T17:37:48;15.55;;;10.10;;
9072;SDS011;4572;41.642;25.370;2022-10-31T17:40:15;13.73;;;8.63;;
9072;SDS011;4572;41.642;25.370;2022-10-31T17:42:42;17.43;;;9.77;;
9072;SDS011;4572;41.642;25.370;2022-10-31T17:45:12;14.50;;;7.10;;